createdAt,value
2023-04-08T15:17:00.433Z,10.02
2023-04-08T15:19:27.728Z,9.50
2023-04-08T15:21:54.496Z,9.40
2023-04-08T15:24:21.264Z,9.27
2023-04-08T15:26:47.953Z,9.18
2023-04-08T15:29:14.615Z,9.05
2023-04-08T15:31:41.624Z,9.07
2023-04-08T15:34:08.279Z,8.75
2023-04-08T15:36:37.259Z,9.35
2023-04-08T15:39:04.238Z,9.88
2023-04-08T15:41:32.262Z,9.30
2023-04-08T15:43:58.936Z,9.55
2023-04-08T15:46:25.618Z,9.82
2023-04-08T15:48:52.565Z,9.85
2023-04-08T15:51:20.269Z,9.40
2023-04-08T15:53:47.214Z,9.40
2023-04-08T15:56:17.714Z,9.80
2023-04-08T15:58:45.552Z,11.05
2023-04-08T16:01:12.505Z,10.00
2023-04-08T16:03:39.572Z,9.90
2023-04-08T16:06:06.445Z,11.45
2023-04-08T16:08:34.736Z,11.77
2023-04-08T16:11:03.361Z,11.32
2023-04-08T16:13:30.749Z,9.45
2023-04-08T16:15:58.442Z,9.82
2023-04-08T16:18:25.883Z,11.30
2023-04-08T16:20:53.209Z,11.45
2023-04-08T16:23:20.203Z,10.70
2023-04-08T16:25:46.967Z,11.15
2023-04-08T16:28:13.880Z,10.50
2023-04-08T16:30:43.773Z,10.35
2023-04-08T16:33:13.850Z,10.23
2023-04-08T16:35:40.545Z,12.98
2023-04-08T16:38:07.304Z,11.57
2023-04-08T16:40:34.925Z,9.50
2023-04-08T16:43:04.731Z,9.50
2023-04-08T16:45:32.597Z,9.55
2023-04-08T16:48:00.514Z,9.43
2023-04-08T16:50:28.379Z,9.07
2023-04-08T16:52:55.496Z,8.88
2023-04-08T16:55:22.167Z,9.57
2023-04-08T16:57:49.049Z,9.38
2023-04-08T17:00:17.476Z,9.57
2023-04-08T17:02:47.320Z,9.38
2023-04-08T17:05:14.106Z,10.77
2023-04-08T17:07:41.012Z,11.30
2023-04-08T17:10:08.454Z,10.73
2023-04-08T17:12:36.159Z,11.63
2023-04-08T17:15:03.378Z,11.93
2023-04-08T17:17:30.093Z,10.65
2023-04-08T17:19:56.936Z,11.77
2023-04-08T17:22:23.723Z,9.90
2023-04-08T17:24:50.483Z,10.80
2023-04-08T17:27:17.317Z,11.07
2023-04-08T17:29:44.385Z,11.18
2023-04-08T17:32:12.426Z,11.57
2023-04-08T17:34:40.856Z,12.05
2023-04-08T17:37:09.252Z,11.38
2023-04-08T17:39:40.541Z,11.48
2023-04-08T17:42:08.193Z,10.48
2023-04-08T17:44:34.909Z,13.45
2023-04-08T17:47:05.887Z,12.60
2023-04-08T17:49:32.569Z,13.45
2023-04-08T17:51:59.262Z,12.70
2023-04-08T17:54:26.219Z,11.45
2023-04-08T17:56:53.087Z,12.52
2023-04-08T17:59:19.789Z,12.05
2023-04-08T18:01:46.484Z,12.95
2023-04-08T18:04:13.713Z,13.15
2023-04-08T18:06:40.678Z,13.25
2023-04-08T18:09:07.340Z,13.57
2023-04-08T18:11:33.994Z,13.65
2023-04-08T18:14:00.638Z,14.07
2023-04-08T18:16:27.411Z,15.85
2023-04-08T18:18:54.057Z,13.98
2023-04-08T18:21:22.024Z,15.00
2023-04-08T18:23:49.999Z,16.52
2023-04-08T18:26:17.168Z,15.85
2023-04-08T18:28:43.978Z,17.52
2023-04-08T18:31:10.880Z,20.08
2023-04-08T18:33:38.964Z,20.30
2023-04-08T18:36:07.450Z,25.58
2023-04-08T18:38:36.068Z,28.88
2023-04-08T18:41:04.052Z,23.42
2023-04-08T18:43:30.916Z,21.95
2023-04-08T18:45:58.036Z,21.25
2023-04-08T18:48:24.786Z,21.83
2023-04-08T18:50:51.537Z,19.75
2023-04-08T18:53:18.221Z,18.55
2023-04-08T18:55:45.461Z,20.08
2023-04-08T18:58:12.112Z,19.77
2023-04-08T19:00:41.995Z,19.23
2023-04-08T19:03:10.224Z,20.17
2023-04-08T19:05:37.556Z,19.45
2023-04-08T19:08:04.762Z,18.60
2023-04-08T19:10:33.176Z,19.58
2023-04-08T19:13:00.704Z,19.55
2023-04-08T19:15:28.697Z,18.45
2023-04-08T19:17:56.377Z,17.92
2023-04-08T19:20:23.272Z,18.67
2023-04-08T19:22:50.287Z,17.30
2023-04-08T19:25:17.592Z,17.08
2023-04-08T19:27:45.737Z,16.17
2023-04-08T19:30:12.936Z,16.27
2023-04-08T19:32:39.748Z,13.82
2023-04-08T19:35:07.122Z,15.10
2023-04-08T19:37:33.779Z,15.48
2023-04-08T19:40:00.589Z,15.02
2023-04-08T19:42:27.743Z,16.92
2023-04-08T19:44:55.182Z,14.38
2023-04-08T19:47:22.069Z,14.90
2023-04-08T19:49:48.825Z,13.48
2023-04-08T19:52:15.468Z,14.93
2023-04-08T19:54:43.387Z,15.93
2023-04-08T19:57:11.466Z,13.02
2023-04-08T19:59:38.207Z,14.82
2023-04-08T20:02:05.238Z,13.63
2023-04-08T20:04:32.702Z,14.85
2023-04-08T20:07:03.354Z,13.75
2023-04-08T20:09:32.316Z,14.85
2023-04-08T20:12:04.412Z,12.15
2023-04-08T20:14:31.955Z,14.30
2023-04-08T20:16:59.100Z,12.95
2023-04-08T20:19:26.229Z,13.57
2023-04-08T20:21:53.251Z,14.05
2023-04-08T20:24:20.038Z,12.30
2023-04-08T20:26:47.024Z,12.75
2023-04-08T20:29:13.659Z,13.35
2023-04-08T20:31:40.351Z,12.60
2023-04-08T20:34:07.064Z,12.82
2023-04-08T20:36:34.252Z,13.18
2023-04-08T20:39:00.929Z,12.88
2023-04-08T20:41:27.813Z,11.13
2023-04-08T20:43:54.877Z,12.45
2023-04-08T20:46:22.392Z,10.90
2023-04-08T20:48:49.302Z,11.90
2023-04-08T20:51:17.370Z,12.90
2023-04-08T20:53:44.630Z,13.05
2023-04-08T20:56:11.385Z,14.38
2023-04-08T20:58:38.096Z,13.73
2023-04-08T21:01:04.873Z,13.68
2023-04-08T21:03:32.630Z,13.57
2023-04-08T21:05:59.397Z,13.38
2023-04-08T21:08:26.133Z,13.05
2023-04-08T21:10:54.231Z,15.02
2023-04-08T21:13:21.121Z,14.90
2023-04-08T21:15:47.795Z,14.82
2023-04-08T21:18:14.487Z,17.40
2023-04-08T21:20:41.221Z,16.25
2023-04-08T21:23:08.099Z,14.70
2023-04-08T21:25:34.876Z,15.43
2023-04-08T21:28:02.296Z,15.10
2023-04-08T21:30:29.127Z,15.10
2023-04-08T21:32:55.815Z,14.60
2023-04-08T21:35:23.745Z,15.85
2023-04-08T21:37:50.646Z,14.20
2023-04-08T21:40:17.478Z,16.23
2023-04-08T21:42:44.418Z,13.90
2023-04-08T21:45:11.582Z,13.23
2023-04-08T21:47:38.397Z,15.40
2023-04-08T21:50:06.128Z,16.25
2023-04-08T21:52:32.835Z,15.15
2023-04-08T21:54:59.614Z,16.20
2023-04-08T21:57:26.394Z,15.10
2023-04-08T21:59:53.074Z,16.85
2023-04-08T22:02:19.826Z,13.82
2023-04-08T22:04:46.738Z,15.43
2023-04-08T22:07:13.515Z,18.17
2023-04-08T22:09:40.352Z,16.42
2023-04-08T22:12:08.671Z,15.35
2023-04-08T22:14:35.314Z,14.85
2023-04-08T22:17:02.211Z,15.88
2023-04-08T22:19:28.987Z,14.55
2023-04-08T22:21:55.825Z,14.48
2023-04-08T22:24:22.549Z,13.90
2023-04-08T22:26:49.289Z,16.25
2023-04-08T22:29:16.205Z,16.50
2023-04-08T22:31:42.857Z,13.98
2023-04-08T22:34:09.573Z,15.38
2023-04-08T22:36:36.264Z,15.57
2023-04-08T22:39:03.814Z,15.63
2023-04-08T22:41:30.562Z,16.23
2023-04-08T22:43:57.263Z,16.80
2023-04-08T22:46:23.944Z,15.48
2023-04-08T22:48:50.816Z,15.65
2023-04-08T22:51:17.840Z,15.55
2023-04-08T22:53:44.457Z,15.95
2023-04-08T22:56:11.392Z,17.77
2023-04-08T22:58:38.086Z,17.73
2023-04-08T23:01:16.901Z,16.83
2023-04-08T23:03:44.334Z,17.60
2023-04-08T23:06:11.413Z,17.38
2023-04-08T23:08:38.665Z,17.08
2023-04-08T23:11:06.607Z,16.10
2023-04-08T23:13:33.358Z,17.13
2023-04-08T23:16:00.123Z,16.73
2023-04-08T23:18:27.714Z,16.67
2023-04-08T23:20:58.276Z,16.08
2023-04-08T23:23:25.394Z,15.20
2023-04-08T23:25:55.341Z,15.20
2023-04-08T23:28:22.624Z,15.30
2023-04-08T23:30:49.647Z,14.57
2023-04-08T23:33:16.970Z,14.63
2023-04-08T23:35:43.846Z,15.82
2023-04-08T23:38:10.556Z,15.55
2023-04-08T23:40:37.311Z,15.27
2023-04-08T23:43:04.092Z,15.98
2023-04-08T23:45:30.800Z,15.23
2023-04-08T23:47:57.531Z,15.55
2023-04-08T23:50:24.287Z,16.75
2023-04-08T23:52:51.166Z,17.83
2023-04-08T23:55:17.837Z,16.73
2023-04-08T23:57:44.621Z,18.23
